sensor_id;sensor_type;location;lat;lon;timestamp;temperature;humidity
1626;DHT22;806;48.770;9.156;2023-12-29T00:00:19;9.80;99.90
1626;DHT22;806;48.770;9.156;2023-12-29T00:02:46;9.80;99.90
1626;DHT22;806;48.770;9.156;2023-12-29T00:05:13;9.90;99.90
1626;DHT22;806;48.770;9.156;2023-12-29T00:07:40;10.00;99.90
1626;DHT22;806;48.770;9.156;2023-12-29T00:10:08;10.00;99.90
1626;DHT22;806;48.770;9.156;2023-12-29T00:12:35;10.00;99.90
1626;DHT22;806;48.770;9.156;2023-12-29T00:15:03;10.00;99.90
1626;DHT22;806;48.770;9.156;2023-12-29T00:17:31;10.10;99.90
1626;DHT22;806;48.770;9.156;2023-12-29T00:20:03;10.10;99.90
1626;DHT22;806;48.770;9.156;2023-12-29T00:22:30;10.10;99.90
1626;DHT22;806;48.770;9.156;2023-12-29T00:24:57;10.00;99.90
1626;DHT22;806;48.770;9.156;2023-12-29T00:27:24;10.00;99.90
1626;DHT22;806;48.770;9.156;2023-12-29T00:29:51;10.00;99.90
1626;DHT22;806;48.770;9.156;2023-12-29T00:32:19;10.00;99.90
1626;DHT22;806;48.770;9.156;2023-12-29T00:34:47;10.10;99.90
1626;DHT22;806;48.770;9.156;2023-12-29T00:37:14;10.00;99.90
1626;DHT22;806;48.770;9.156;2023-12-29T00:39:41;10.00;99.90
1626;DHT22;806;48.770;9.156;2023-12-29T00:42:08;10.00;99.90
1626;DHT22;806;48.770;9.156;2023-12-29T00:44:35;10.00;99.90
1626;DHT22;806;48.770;9.156;2023-12-29T00:47:03;10.10;99.90
1626;DHT22;806;48.770;9.156;2023-12-29T00:49:30;10.10;99.90
1626;DHT22;806;48.770;9.156;2023-12-29T00:51:58;10.10;99.90
1626;DHT22;806;48.770;9.156;2023-12-29T00:54:28;10.20;99.90
1626;DHT22;806;48.770;9.156;2023-12-29T00:56:55;10.10;99.90
1626;DHT22;806;48.770;9.156;2023-12-29T00:59:22;10.20;99.90
1626;DHT22;806;48.770;9.156;2023-12-29T01:01:49;10.20;99.90
1626;DHT22;806;48.770;9.156;2023-12-29T01:04:16;10.30;99.90
1626;DHT22;806;48.770;9.156;2023-12-29T01:06:43;10.30;99.90
1626;DHT22;806;48.770;9.156;2023-12-29T01:09:12;10.30;99.90
1626;DHT22;806;48.770;9.156;2023-12-29T01:11:39;10.30;99.90
1626;DHT22;806;48.770;9.156;2023-12-29T01:14:06;10.30;99.90
1626;DHT22;806;48.770;9.156;2023-12-29T01:16:33;10.40;99.90
1626;DHT22;806;48.770;9.156;2023-12-29T01:19:01;10.40;99.90
1626;DHT22;806;48.770;9.156;2023-12-29T01:21:28;10.30;99.90
1626;DHT22;806;48.770;9.156;2023-12-29T01:23:59;10.30;99.90
1626;DHT22;806;48.770;9.156;2023-12-29T01:26:27;10.30;99.90
1626;DHT22;806;48.770;9.156;2023-12-29T01:28:54;10.40;99.90
1626;DHT22;806;48.770;9.156;2023-12-29T01:31:23;10.30;99.90
1626;DHT22;806;48.770;9.156;2023-12-29T01:33:50;10.30;99.90
1626;DHT22;806;48.770;9.156;2023-12-29T01:36:17;10.30;99.90
1626;DHT22;806;48.770;9.156;2023-12-29T01:38:45;10.20;99.90
1626;DHT22;806;48.770;9.156;2023-12-29T01:41:12;10.20;99.90
1626;DHT22;806;48.770;9.156;2023-12-29T01:44:14;10.20;99.90
1626;DHT22;806;48.770;9.156;2023-12-29T01:46:43;10.30;99.90
1626;DHT22;806;48.770;9.156;2023-12-29T01:49:12;10.30;99.90
1626;DHT22;806;48.770;9.156;2023-12-29T01:51:40;10.30;99.90
1626;DHT22;806;48.770;9.156;2023-12-29T01:54:09;10.30;99.90
1626;DHT22;806;48.770;9.156;2023-12-29T01:56:37;10.40;99.90
1626;DHT22;806;48.770;9.156;2023-12-29T01:59:05;10.40;99.90
1626;DHT22;806;48.770;9.156;2023-12-29T02:01:34;10.40;99.90
1626;DHT22;806;48.770;9.156;2023-12-29T02:04:02;10.40;99.90
1626;DHT22;806;48.770;9.156;2023-12-29T02:06:31;10.40;99.90
1626;DHT22;806;48.770;9.156;2023-12-29T02:08:59;10.30;99.90
1626;DHT22;806;48.770;9.156;2023-12-29T02:11:26;10.30;99.90
1626;DHT22;806;48.770;9.156;2023-12-29T02:13:53;10.40;99.90
1626;DHT22;806;48.770;9.156;2023-12-29T02:16:25;10.40;99.90
1626;DHT22;806;48.770;9.156;2023-12-29T02:18:58;10.30;99.90
1626;DHT22;806;48.770;9.156;2023-12-29T02:21:27;10.30;99.90
1626;DHT22;806;48.770;9.156;2023-12-29T02:23:54;10.30;99.90
1626;DHT22;806;48.770;9.156;2023-12-29T02:26:25;10.40;99.90
1626;DHT22;806;48.770;9.156;2023-12-29T02:29:01;10.40;99.90
1626;DHT22;806;48.770;9.156;2023-12-29T02:31:30;10.40;99.90
1626;DHT22;806;48.770;9.156;2023-12-29T02:34:00;10.50;99.90
1626;DHT22;806;48.770;9.156;2023-12-29T02:36:32;10.50;99.90
1626;DHT22;806;48.770;9.156;2023-12-29T02:38:59;10.50;99.90
1626;DHT22;806;48.770;9.156;2023-12-29T02:41:28;10.50;99.90
1626;DHT22;806;48.770;9.156;2023-12-29T02:43:55;10.50;99.90
1626;DHT22;806;48.770;9.156;2023-12-29T02:46:22;10.40;99.90
1626;DHT22;806;48.770;9.156;2023-12-29T02:48:49;10.40;99.90
1626;DHT22;806;48.770;9.156;2023-12-29T02:51:16;10.30;99.90
1626;DHT22;806;48.770;9.156;2023-12-29T02:53:43;10.40;99.90
1626;DHT22;806;48.770;9.156;2023-12-29T02:56:10;10.40;99.90
1626;DHT22;806;48.770;9.156;2023-12-29T02:58:39;10.40;99.90
1626;DHT22;806;48.770;9.156;2023-12-29T03:01:06;10.30;99.90
1626;DHT22;806;48.770;9.156;2023-12-29T03:03:33;10.40;99.90
1626;DHT22;806;48.770;9.156;2023-12-29T03:06:00;10.30;99.90
1626;DHT22;806;48.770;9.156;2023-12-29T03:08:27;10.40;99.90
1626;DHT22;806;48.770;9.156;2023-12-29T03:10:54;10.40;99.90
1626;DHT22;806;48.770;9.156;2023-12-29T03:13:21;10.30;99.90
1626;DHT22;806;48.770;9.156;2023-12-29T03:15:49;10.30;99.90
1626;DHT22;806;48.770;9.156;2023-12-29T03:18:16;10.30;99.90
1626;DHT22;806;48.770;9.156;2023-12-29T03:20:43;10.30;99.90
1626;DHT22;806;48.770;9.156;2023-12-29T03:23:10;10.20;99.90
1626;DHT22;806;48.770;9.156;2023-12-29T03:25:37;10.20;1.00
1626;DHT22;806;48.770;9.156;2023-12-29T03:28:05;10.30;99.90
1626;DHT22;806;48.770;9.156;2023-12-29T03:30:32;10.30;99.90
1626;DHT22;806;48.770;9.156;2023-12-29T03:33:00;10.30;99.90
1626;DHT22;806;48.770;9.156;2023-12-29T03:35:27;10.20;99.90
1626;DHT22;806;48.770;9.156;2023-12-29T03:37:56;10.10;1.00
1626;DHT22;806;48.770;9.156;2023-12-29T03:40:23;10.00;1.00
1626;DHT22;806;48.770;9.156;2023-12-29T03:42:50;10.00;1.00
1626;DHT22;806;48.770;9.156;2023-12-29T03:45:17;10.00;1.00
1626;DHT22;806;48.770;9.156;2023-12-29T03:47:44;10.00;1.00
1626;DHT22;806;48.770;9.156;2023-12-29T03:50:12;9.90;1.00
1626;DHT22;806;48.770;9.156;2023-12-29T03:52:39;9.90;1.00
1626;DHT22;806;48.770;9.156;2023-12-29T03:55:07;9.90;1.00
1626;DHT22;806;48.770;9.156;2023-12-29T03:57:34;9.90;1.00
1626;DHT22;806;48.770;9.156;2023-12-29T04:00:01;10.00;1.00
1626;DHT22;806;48.770;9.156;2023-12-29T04:02:28;10.00;1.00
1626;DHT22;806;48.770;9.156;2023-12-29T04:04:55;10.00;1.00
1626;DHT22;806;48.770;9.156;2023-12-29T04:07:24;9.90;1.00
1626;DHT22;806;48.770;9.156;2023-12-29T04:09:51;9.80;1.00
1626;DHT22;806;48.770;9.156;2023-12-29T04:12:18;9.80;1.00
1626;DHT22;806;48.770;9.156;2023-12-29T04:14:45;9.90;1.00
1626;DHT22;806;48.770;9.156;2023-12-29T04:17:12;9.80;1.00
1626;DHT22;806;48.770;9.156;2023-12-29T04:19:40;9.90;1.00
1626;DHT22;806;48.770;9.156;2023-12-29T04:22:08;9.90;1.00
1626;DHT22;806;48.770;9.156;2023-12-29T04:24:37;9.90;1.00
1626;DHT22;806;48.770;9.156;2023-12-29T04:27:05;10.00;1.00
1626;DHT22;806;48.770;9.156;2023-12-29T04:29:32;9.90;1.00
1626;DHT22;806;48.770;9.156;2023-12-29T04:31:59;10.00;1.00
1626;DHT22;806;48.770;9.156;2023-12-29T04:34:26;10.00;1.00
1626;DHT22;806;48.770;9.156;2023-12-29T04:36:53;9.90;1.00
1626;DHT22;806;48.770;9.156;2023-12-29T04:39:20;9.90;10.00
1626;DHT22;806;48.770;9.156;2023-12-29T04:41:49;9.80;16.30
1626;DHT22;806;48.770;9.156;2023-12-29T04:44:16;9.70;27.00
1626;DHT22;806;48.770;9.156;2023-12-29T04:46:43;9.70;35.50
1626;DHT22;806;48.770;9.156;2023-12-29T04:49:10;9.70;43.60
1626;DHT22;806;48.770;9.156;2023-12-29T04:51:37;9.70;43.30
1626;DHT22;806;48.770;9.156;2023-12-29T04:54:05;9.80;47.60
1626;DHT22;806;48.770;9.156;2023-12-29T04:56:32;9.80;39.20
1626;DHT22;806;48.770;9.156;2023-12-29T04:59:00;9.80;41.20
1626;DHT22;806;48.770;9.156;2023-12-29T05:01:27;9.80;39.60
1626;DHT22;806;48.770;9.156;2023-12-29T05:03:54;9.80;37.50
1626;DHT22;806;48.770;9.156;2023-12-29T05:06:21;9.80;38.30
1626;DHT22;806;48.770;9.156;2023-12-29T05:08:48;9.80;48.30
1626;DHT22;806;48.770;9.156;2023-12-29T05:11:15;9.90;43.50
1626;DHT22;806;48.770;9.156;2023-12-29T05:13:42;9.80;41.10
1626;DHT22;806;48.770;9.156;2023-12-29T05:16:11;9.80;45.40
1626;DHT22;806;48.770;9.156;2023-12-29T05:18:38;9.80;48.90
1626;DHT22;806;48.770;9.156;2023-12-29T05:21:06;9.80;44.80
1626;DHT22;806;48.770;9.156;2023-12-29T05:23:40;9.80;50.00
1626;DHT22;806;48.770;9.156;2023-12-29T05:26:07;9.90;52.90
1626;DHT22;806;48.770;9.156;2023-12-29T05:28:34;10.00;55.70
1626;DHT22;806;48.770;9.156;2023-12-29T05:31:01;10.10;52.50
1626;DHT22;806;48.770;9.156;2023-12-29T05:33:31;10.10;55.10
1626;DHT22;806;48.770;9.156;2023-12-29T05:35:58;10.00;62.30
1626;DHT22;806;48.770;9.156;2023-12-29T05:38:26;9.90;89.30
1626;DHT22;806;48.770;9.156;2023-12-29T05:40:53;9.90;93.30
1626;DHT22;806;48.770;9.156;2023-12-29T05:43:20;9.90;98.50
1626;DHT22;806;48.770;9.156;2023-12-29T05:45:47;9.80;99.90
1626;DHT22;806;48.770;9.156;2023-12-29T05:48:14;9.80;99.90
1626;DHT22;806;48.770;9.156;2023-12-29T05:50:42;9.90;99.90
1626;DHT22;806;48.770;9.156;2023-12-29T05:53:10;9.90;99.90
1626;DHT22;806;48.770;9.156;2023-12-29T05:55:37;9.90;99.90
1626;DHT22;806;48.770;9.156;2023-12-29T05:58:04;9.90;99.90
1626;DHT22;806;48.770;9.156;2023-12-29T06:00:31;9.90;99.90
1626;DHT22;806;48.770;9.156;2023-12-29T06:02:58;9.80;99.90
1626;DHT22;806;48.770;9.156;2023-12-29T06:05:26;9.80;99.90
1626;DHT22;806;48.770;9.156;2023-12-29T06:07:54;9.80;99.90
1626;DHT22;806;48.770;9.156;2023-12-29T06:10:22;9.80;99.90
1626;DHT22;806;48.770;9.156;2023-12-29T06:12:49;9.80;99.90
1626;DHT22;806;48.770;9.156;2023-12-29T06:15:17;9.80;99.90
1626;DHT22;806;48.770;9.156;2023-12-29T06:17:44;9.70;99.90
1626;DHT22;806;48.770;9.156;2023-12-29T06:20:11;9.70;99.90
1626;DHT22;806;48.770;9.156;2023-12-29T06:22:39;9.70;99.90
1626;DHT22;806;48.770;9.156;2023-12-29T06:25:10;9.70;99.90
1626;DHT22;806;48.770;9.156;2023-12-29T06:27:38;9.70;99.90
1626;DHT22;806;48.770;9.156;2023-12-29T06:30:07;9.70;99.90
1626;DHT22;806;48.770;9.156;2023-12-29T06:32:35;9.60;99.90
1626;DHT22;806;48.770;9.156;2023-12-29T06:35:03;9.60;99.90
1626;DHT22;806;48.770;9.156;2023-12-29T06:37:31;9.60;99.90
1626;DHT22;806;48.770;9.156;2023-12-29T06:39:58;9.60;99.90
1626;DHT22;806;48.770;9.156;2023-12-29T06:42:26;9.60;99.90
1626;DHT22;806;48.770;9.156;2023-12-29T06:44:54;9.60;99.90
1626;DHT22;806;48.770;9.156;2023-12-29T06:47:21;9.60;99.90
1626;DHT22;806;48.770;9.156;2023-12-29T06:49:48;9.70;99.90
1626;DHT22;806;48.770;9.156;2023-12-29T06:52:15;9.70;99.90
1626;DHT22;806;48.770;9.156;2023-12-29T06:54:43;9.70;99.90
1626;DHT22;806;48.770;9.156;2023-12-29T06:57:10;9.70;99.90
1626;DHT22;806;48.770;9.156;2023-12-29T06:59:41;9.70;99.90
1626;DHT22;806;48.770;9.156;2023-12-29T07:02:08;9.80;99.90
1626;DHT22;806;48.770;9.156;2023-12-29T07:04:35;9.80;99.90
1626;DHT22;806;48.770;9.156;2023-12-29T07:07:03;10.10;99.90
1626;DHT22;806;48.770;9.156;2023-12-29T07:09:30;10.40;99.90
1626;DHT22;806;48.770;9.156;2023-12-29T07:11:57;10.30;99.90
1626;DHT22;806;48.770;9.156;2023-12-29T07:14:24;10.20;99.90
1626;DHT22;806;48.770;9.156;2023-12-29T07:16:53;10.10;99.90
1626;DHT22;806;48.770;9.156;2023-12-29T07:19:20;10.00;99.90
1626;DHT22;806;48.770;9.156;2023-12-29T07:21:47;10.00;99.90
1626;DHT22;806;48.770;9.156;2023-12-29T07:24:14;10.00;99.90
1626;DHT22;806;48.770;9.156;2023-12-29T07:26:41;10.00;99.90
1626;DHT22;806;48.770;9.156;2023-12-29T07:29:09;10.10;99.90
1626;DHT22;806;48.770;9.156;2023-12-29T07:31:38;10.00;99.90
1626;DHT22;806;48.770;9.156;2023-12-29T07:34:07;9.90;99.90
1626;DHT22;806;48.770;9.156;2023-12-29T07:36:38;9.90;99.90
1626;DHT22;806;48.770;9.156;2023-12-29T07:39:05;9.80;99.90
1626;DHT22;806;48.770;9.156;2023-12-29T07:41:32;9.90;99.90
1626;DHT22;806;48.770;9.156;2023-12-29T07:44:00;9.80;99.90
1626;DHT22;806;48.770;9.156;2023-12-29T07:46:27;10.00;99.90
1626;DHT22;806;48.770;9.156;2023-12-29T07:48:54;9.90;99.90
1626;DHT22;806;48.770;9.156;2023-12-29T07:51:22;9.90;99.90
1626;DHT22;806;48.770;9.156;2023-12-29T07:53:49;9.80;99.90
1626;DHT22;806;48.770;9.156;2023-12-29T07:56:16;9.90;99.90
1626;DHT22;806;48.770;9.156;2023-12-29T07:58:43;9.90;99.90
1626;DHT22;806;48.770;9.156;2023-12-29T08:01:10;10.00;99.90
1626;DHT22;806;48.770;9.156;2023-12-29T08:03:37;10.20;99.90
1626;DHT22;806;48.770;9.156;2023-12-29T08:06:05;10.10;99.90
1626;DHT22;806;48.770;9.156;2023-12-29T08:08:33;10.20;99.90
1626;DHT22;806;48.770;9.156;2023-12-29T08:11:00;10.20;99.90
1626;DHT22;806;48.770;9.156;2023-12-29T08:13:27;10.10;99.90
1626;DHT22;806;48.770;9.156;2023-12-29T08:15:54;10.20;99.90
1626;DHT22;806;48.770;9.156;2023-12-29T08:18:21;10.20;99.90
1626;DHT22;806;48.770;9.156;2023-12-29T08:20:48;10.20;99.90
1626;DHT22;806;48.770;9.156;2023-12-29T08:23:15;10.20;99.90
1626;DHT22;806;48.770;9.156;2023-12-29T08:25:44;10.30;99.90
1626;DHT22;806;48.770;9.156;2023-12-29T08:28:12;10.40;99.90
1626;DHT22;806;48.770;9.156;2023-12-29T08:30:39;10.20;99.90
1626;DHT22;806;48.770;9.156;2023-12-29T08:33:06;10.30;99.90
1626;DHT22;806;48.770;9.156;2023-12-29T08:35:33;10.30;99.90
1626;DHT22;806;48.770;9.156;2023-12-29T08:38:00;10.20;99.90
1626;DHT22;806;48.770;9.156;2023-12-29T08:40:27;10.20;99.90
1626;DHT22;806;48.770;9.156;2023-12-29T08:42:55;10.20;99.90
1626;DHT22;806;48.770;9.156;2023-12-29T08:45:23;10.20;99.90
1626;DHT22;806;48.770;9.156;2023-12-29T08:47:50;10.20;99.90
1626;DHT22;806;48.770;9.156;2023-12-29T08:50:17;10.20;99.90
1626;DHT22;806;48.770;9.156;2023-12-29T08:52:44;10.20;99.90
1626;DHT22;806;48.770;9.156;2023-12-29T08:55:11;10.20;99.90
1626;DHT22;806;48.770;9.156;2023-12-29T08:57:38;10.30;99.90
1626;DHT22;806;48.770;9.156;2023-12-29T09:00:08;10.40;99.90
1626;DHT22;806;48.770;9.156;2023-12-29T09:02:35;10.50;99.90
1626;DHT22;806;48.770;9.156;2023-12-29T09:05:03;10.50;99.90
1626;DHT22;806;48.770;9.156;2023-12-29T09:07:30;10.50;99.90
1626;DHT22;806;48.770;9.156;2023-12-29T09:09:57;10.50;99.90
1626;DHT22;806;48.770;9.156;2023-12-29T09:12:24;10.60;99.90
1626;DHT22;806;48.770;9.156;2023-12-29T09:14:51;10.60;99.90
1626;DHT22;806;48.770;9.156;2023-12-29T09:17:20;10.60;99.90
1626;DHT22;806;48.770;9.156;2023-12-29T09:19:47;10.70;99.90
1626;DHT22;806;48.770;9.156;2023-12-29T09:22:14;10.80;99.90
1626;DHT22;806;48.770;9.156;2023-12-29T09:24:42;10.80;99.90
1626;DHT22;806;48.770;9.156;2023-12-29T09:27:09;10.80;99.90
1626;DHT22;806;48.770;9.156;2023-12-29T09:29:36;10.80;99.90
1626;DHT22;806;48.770;9.156;2023-12-29T09:32:04;10.90;99.90
1626;DHT22;806;48.770;9.156;2023-12-29T09:34:33;11.00;99.90
1626;DHT22;806;48.770;9.156;2023-12-29T09:37:00;11.00;99.90
1626;DHT22;806;48.770;9.156;2023-12-29T09:39:27;11.00;99.90
1626;DHT22;806;48.770;9.156;2023-12-29T09:41:58;11.00;99.90
1626;DHT22;806;48.770;9.156;2023-12-29T09:44:27;11.00;99.90
1626;DHT22;806;48.770;9.156;2023-12-29T09:46:55;11.00;99.90
1626;DHT22;806;48.770;9.156;2023-12-29T09:49:24;10.90;99.90
1626;DHT22;806;48.770;9.156;2023-12-29T09:51:53;10.90;99.90
1626;DHT22;806;48.770;9.156;2023-12-29T09:54:21;10.90;99.90
1626;DHT22;806;48.770;9.156;2023-12-29T09:56:49;10.90;99.90
1626;DHT22;806;48.770;9.156;2023-12-29T09:59:18;10.90;99.90
1626;DHT22;806;48.770;9.156;2023-12-29T10:01:46;10.90;99.90
1626;DHT22;806;48.770;9.156;2023-12-29T10:04:13;11.00;99.90
1626;DHT22;806;48.770;9.156;2023-12-29T10:06:44;11.00;99.90
1626;DHT22;806;48.770;9.156;2023-12-29T10:09:15;11.00;99.90
1626;DHT22;806;48.770;9.156;2023-12-29T10:11:46;11.10;99.90
1626;DHT22;806;48.770;9.156;2023-12-29T10:14:21;11.20;99.90
1626;DHT22;806;48.770;9.156;2023-12-29T10:16:52;11.30;99.90
1626;DHT22;806;48.770;9.156;2023-12-29T10:19:29;11.40;99.90
1626;DHT22;806;48.770;9.156;2023-12-29T10:22:02;11.40;99.90
1626;DHT22;806;48.770;9.156;2023-12-29T10:24:34;11.40;99.90
1626;DHT22;806;48.770;9.156;2023-12-29T10:27:02;11.30;99.90
1626;DHT22;806;48.770;9.156;2023-12-29T10:29:30;11.30;99.90
1626;DHT22;806;48.770;9.156;2023-12-29T10:31:58;11.40;99.90
1626;DHT22;806;48.770;9.156;2023-12-29T10:34:26;11.40;99.90
1626;DHT22;806;48.770;9.156;2023-12-29T10:36:55;11.50;99.90
1626;DHT22;806;48.770;9.156;2023-12-29T10:39:23;11.50;99.90
1626;DHT22;806;48.770;9.156;2023-12-29T10:42:02;11.50;99.90
1626;DHT22;806;48.770;9.156;2023-12-29T10:44:30;11.50;99.90
1626;DHT22;806;48.770;9.156;2023-12-29T10:46:57;11.60;99.90
1626;DHT22;806;48.770;9.156;2023-12-29T10:49:24;11.70;99.90
1626;DHT22;806;48.770;9.156;2023-12-29T10:51:51;11.70;99.90
1626;DHT22;806;48.770;9.156;2023-12-29T10:54:20;11.80;99.90
1626;DHT22;806;48.770;9.156;2023-12-29T10:57:00;11.80;99.90
1626;DHT22;806;48.770;9.156;2023-12-29T10:59:28;11.80;99.90
1626;DHT22;806;48.770;9.156;2023-12-29T11:01:56;11.80;99.90
1626;DHT22;806;48.770;9.156;2023-12-29T11:04:23;11.80;99.90
1626;DHT22;806;48.770;9.156;2023-12-29T11:06:50;11.90;99.90
1626;DHT22;806;48.770;9.156;2023-12-29T11:09:27;11.90;99.90
1626;DHT22;806;48.770;9.156;2023-12-29T11:11:59;12.00;99.90
1626;DHT22;806;48.770;9.156;2023-12-29T11:14:26;12.00;99.90
1626;DHT22;806;48.770;9.156;2023-12-29T11:16:55;12.00;99.90
1626;DHT22;806;48.770;9.156;2023-12-29T11:19:22;12.00;99.90
1626;DHT22;806;48.770;9.156;2023-12-29T11:21:50;12.00;99.90
1626;DHT22;806;48.770;9.156;2023-12-29T11:24:18;12.00;99.90
1626;DHT22;806;48.770;9.156;2023-12-29T11:26:45;12.00;99.90
1626;DHT22;806;48.770;9.156;2023-12-29T11:29:15;12.10;99.90
1626;DHT22;806;48.770;9.156;2023-12-29T11:31:43;12.10;99.90
1626;DHT22;806;48.770;9.156;2023-12-29T11:34:13;12.20;99.90
1626;DHT22;806;48.770;9.156;2023-12-29T11:36:45;12.20;99.90
1626;DHT22;806;48.770;9.156;2023-12-29T11:39:19;12.30;99.90
1626;DHT22;806;48.770;9.156;2023-12-29T11:41:54;12.20;99.90
1626;DHT22;806;48.770;9.156;2023-12-29T11:44:28;12.20;99.90
1626;DHT22;806;48.770;9.156;2023-12-29T11:46:56;12.20;99.90
1626;DHT22;806;48.770;9.156;2023-12-29T11:49:23;12.30;99.90
1626;DHT22;806;48.770;9.156;2023-12-29T11:51:50;12.30;99.90
1626;DHT22;806;48.770;9.156;2023-12-29T11:54:27;12.40;99.90
1626;DHT22;806;48.770;9.156;2023-12-29T11:56:54;12.40;99.90
1626;DHT22;806;48.770;9.156;2023-12-29T11:59:22;12.40;99.90
1626;DHT22;806;48.770;9.156;2023-12-29T12:01:53;12.50;99.90
1626;DHT22;806;48.770;9.156;2023-12-29T12:04:39;12.50;99.90
1626;DHT22;806;48.770;9.156;2023-12-29T12:07:09;12.50;99.90
1626;DHT22;806;48.770;9.156;2023-12-29T12:09:36;12.50;99.90
1626;DHT22;806;48.770;9.156;2023-12-29T12:12:04;12.50;99.90
1626;DHT22;806;48.770;9.156;2023-12-29T12:14:48;12.50;99.90
1626;DHT22;806;48.770;9.156;2023-12-29T12:17:31;12.40;99.90
1626;DHT22;806;48.770;9.156;2023-12-29T12:20:03;12.40;99.90
1626;DHT22;806;48.770;9.156;2023-12-29T12:22:31;12.40;99.90
1626;DHT22;806;48.770;9.156;2023-12-29T12:24:59;12.40;99.90
1626;DHT22;806;48.770;9.156;2023-12-29T12:27:27;12.40;99.90
1626;DHT22;806;48.770;9.156;2023-12-29T12:29:56;12.50;99.90
1626;DHT22;806;48.770;9.156;2023-12-29T12:32:25;12.50;99.90
1626;DHT22;806;48.770;9.156;2023-12-29T12:34:54;12.60;99.90
1626;DHT22;806;48.770;9.156;2023-12-29T12:37:22;12.60;99.90
1626;DHT22;806;48.770;9.156;2023-12-29T12:39:50;12.60;99.90
1626;DHT22;806;48.770;9.156;2023-12-29T12:42:18;12.60;99.90
1626;DHT22;806;48.770;9.156;2023-12-29T12:44:53;12.70;99.90
1626;DHT22;806;48.770;9.156;2023-12-29T12:47:27;12.70;99.90
1626;DHT22;806;48.770;9.156;2023-12-29T12:49:56;12.70;99.90
1626;DHT22;806;48.770;9.156;2023-12-29T12:52:23;12.80;99.90
1626;DHT22;806;48.770;9.156;2023-12-29T12:54:53;12.80;99.90
1626;DHT22;806;48.770;9.156;2023-12-29T12:57:21;12.80;99.90
1626;DHT22;806;48.770;9.156;2023-12-29T12:59:49;12.90;99.90
1626;DHT22;806;48.770;9.156;2023-12-29T13:02:17;13.00;99.90
1626;DHT22;806;48.770;9.156;2023-12-29T13:04:45;13.10;99.90
1626;DHT22;806;48.770;9.156;2023-12-29T13:07:17;13.20;99.90
1626;DHT22;806;48.770;9.156;2023-12-29T13:09:45;13.20;99.90
1626;DHT22;806;48.770;9.156;2023-12-29T13:12:15;13.20;99.90
1626;DHT22;806;48.770;9.156;2023-12-29T13:14:42;13.00;99.90
1626;DHT22;806;48.770;9.156;2023-12-29T13:17:10;13.00;99.90
1626;DHT22;806;48.770;9.156;2023-12-29T13:19:38;13.00;99.90
1626;DHT22;806;48.770;9.156;2023-12-29T13:22:07;13.00;99.90
1626;DHT22;806;48.770;9.156;2023-12-29T13:24:43;12.90;99.90
1626;DHT22;806;48.770;9.156;2023-12-29T13:27:11;12.90;99.90
1626;DHT22;806;48.770;9.156;2023-12-29T13:29:39;12.90;99.90
1626;DHT22;806;48.770;9.156;2023-12-29T13:32:10;12.90;99.90
1626;DHT22;806;48.770;9.156;2023-12-29T13:34:42;12.80;99.90
1626;DHT22;806;48.770;9.156;2023-12-29T13:37:18;12.70;99.90
1626;DHT22;806;48.770;9.156;2023-12-29T13:39:53;12.70;99.90
1626;DHT22;806;48.770;9.156;2023-12-29T13:42:22;12.70;99.90
1626;DHT22;806;48.770;9.156;2023-12-29T13:44:52;12.60;99.90
1626;DHT22;806;48.770;9.156;2023-12-29T13:47:20;12.60;99.90
1626;DHT22;806;48.770;9.156;2023-12-29T13:49:48;12.50;99.90
1626;DHT22;806;48.770;9.156;2023-12-29T13:52:16;12.60;99.90
1626;DHT22;806;48.770;9.156;2023-12-29T13:54:44;12.60;99.90
1626;DHT22;806;48.770;9.156;2023-12-29T13:57:14;12.60;99.90
1626;DHT22;806;48.770;9.156;2023-12-29T13:59:41;12.60;99.90
1626;DHT22;806;48.770;9.156;2023-12-29T14:02:23;12.60;99.90
1626;DHT22;806;48.770;9.156;2023-12-29T14:05:11;12.60;99.90
1626;DHT22;806;48.770;9.156;2023-12-29T14:07:44;12.60;99.90
1626;DHT22;806;48.770;9.156;2023-12-29T14:10:12;12.60;99.90
1626;DHT22;806;48.770;9.156;2023-12-29T14:12:41;12.60;99.90
1626;DHT22;806;48.770;9.156;2023-12-29T14:15:08;12.50;99.90
1626;DHT22;806;48.770;9.156;2023-12-29T14:17:36;12.50;99.90
1626;DHT22;806;48.770;9.156;2023-12-29T14:20:05;12.40;99.90
1626;DHT22;806;48.770;9.156;2023-12-29T14:22:33;12.40;99.90
1626;DHT22;806;48.770;9.156;2023-12-29T14:25:02;12.40;99.90
1626;DHT22;806;48.770;9.156;2023-12-29T14:27:30;12.40;99.90
1626;DHT22;806;48.770;9.156;2023-12-29T14:29:59;12.40;99.90
1626;DHT22;806;48.770;9.156;2023-12-29T14:32:26;12.40;99.90
1626;DHT22;806;48.770;9.156;2023-12-29T14:34:54;12.40;99.90
1626;DHT22;806;48.770;9.156;2023-12-29T14:37:22;12.30;99.90
1626;DHT22;806;48.770;9.156;2023-12-29T14:39:49;12.40;99.90
1626;DHT22;806;48.770;9.156;2023-12-29T14:42:16;12.40;99.90
1626;DHT22;806;48.770;9.156;2023-12-29T14:44:45;12.40;99.90
1626;DHT22;806;48.770;9.156;2023-12-29T14:47:14;12.40;99.90
1626;DHT22;806;48.770;9.156;2023-12-29T14:49:41;12.30;99.90
1626;DHT22;806;48.770;9.156;2023-12-29T14:52:09;12.40;99.90
1626;DHT22;806;48.770;9.156;2023-12-29T14:54:38;12.50;99.90
1626;DHT22;806;48.770;9.156;2023-12-29T14:57:05;12.40;99.90
1626;DHT22;806;48.770;9.156;2023-12-29T14:59:32;12.40;99.90
1626;DHT22;806;48.770;9.156;2023-12-29T15:02:02;12.30;99.90
1626;DHT22;806;48.770;9.156;2023-12-29T15:04:34;12.30;99.90
1626;DHT22;806;48.770;9.156;2023-12-29T15:07:01;12.30;99.90
1626;DHT22;806;48.770;9.156;2023-12-29T15:09:29;12.30;99.90
1626;DHT22;806;48.770;9.156;2023-12-29T15:11:56;12.30;99.90
1626;DHT22;806;48.770;9.156;2023-12-29T15:14:23;12.30;99.90
1626;DHT22;806;48.770;9.156;2023-12-29T15:16:50;12.20;99.90
1626;DHT22;806;48.770;9.156;2023-12-29T15:19:18;12.20;99.90
1626;DHT22;806;48.770;9.156;2023-12-29T15:21:47;12.20;99.90
1626;DHT22;806;48.770;9.156;2023-12-29T15:24:18;12.10;99.90
1626;DHT22;806;48.770;9.156;2023-12-29T15:26:46;12.10;99.90
1626;DHT22;806;48.770;9.156;2023-12-29T15:29:13;12.00;99.90
1626;DHT22;806;48.770;9.156;2023-12-29T15:31:42;11.90;99.90
1626;DHT22;806;48.770;9.156;2023-12-29T15:34:09;11.90;99.90
1626;DHT22;806;48.770;9.156;2023-12-29T15:36:36;11.90;99.90
1626;DHT22;806;48.770;9.156;2023-12-29T15:39:05;12.00;99.90
1626;DHT22;806;48.770;9.156;2023-12-29T15:41:33;11.90;99.90
1626;DHT22;806;48.770;9.156;2023-12-29T15:44:00;11.90;99.90
1626;DHT22;806;48.770;9.156;2023-12-29T15:46:29;11.90;99.90
1626;DHT22;806;48.770;9.156;2023-12-29T15:48:56;11.90;99.90
1626;DHT22;806;48.770;9.156;2023-12-29T15:51:26;11.80;99.90
1626;DHT22;806;48.770;9.156;2023-12-29T15:53:55;11.80;99.90
1626;DHT22;806;48.770;9.156;2023-12-29T15:56:23;11.70;99.90
1626;DHT22;806;48.770;9.156;2023-12-29T15:58:50;11.70;99.90
1626;DHT22;806;48.770;9.156;2023-12-29T16:01:21;11.60;99.90
1626;DHT22;806;48.770;9.156;2023-12-29T16:03:51;11.60;99.90
1626;DHT22;806;48.770;9.156;2023-12-29T16:06:19;11.60;99.90
1626;DHT22;806;48.770;9.156;2023-12-29T16:08:46;11.60;99.90
1626;DHT22;806;48.770;9.156;2023-12-29T16:11:18;11.60;99.90
1626;DHT22;806;48.770;9.156;2023-12-29T16:13:47;11.50;99.90
1626;DHT22;806;48.770;9.156;2023-12-29T16:16:15;11.50;99.90
1626;DHT22;806;48.770;9.156;2023-12-29T16:18:42;11.50;99.90
1626;DHT22;806;48.770;9.156;2023-12-29T16:21:10;11.40;99.90
1626;DHT22;806;48.770;9.156;2023-12-29T16:23:37;11.40;99.90
1626;DHT22;806;48.770;9.156;2023-12-29T16:26:08;11.40;99.90
1626;DHT22;806;48.770;9.156;2023-12-29T16:28:35;11.40;99.90